PWSweather.com
Personal Weather Stations
Station Observations

PoschiavoCH

Lat: 46.31962499999999, Lon: 10.066551000000004

Elevation: 3517

Station Type: WH 1080

http://www.meteoposchiavo.com

High Low Average
Temperature 66.0°F18.9°C 44.0°F6.7°C 53.0°F11.7°C
Dew Point 35.8°F2.1°C 23.0°F-5.0°C 29.5°F-1.4°C
Winds 6.9 mph 11.1 kmh Calm Calm 2.0 mph SE3.2 kmh SE
Wind Gusts 11.5 mph18.5 kmh -- 3.0 mph4.8 kmh
Humidity 61% 30% 41%
Pressure 26.75 in905.9 mb 26.64 in902.1 mb -
Precipitation 0.00 in0.0 mm - -
Hour Temp Dew Point Humidity Winds Wind Gusts Pressure Precip Precip Rate Daily Precip Total
12:00 AM 47.0°F8.3°C 23.3°F-4.8°C 39% 4.6 mph ENE7.4 kmh ENE 8.1 mph13.0 kmh 26.74 in905.5 mb - 0.00 in0.0 mm 0.00 in0.0 mm
12:10 AM 47.0°F8.3°C 24.5°F-4.2°C 41% Calm Calm 1.2 mph1.9 kmh 26.74 in905.5 mb - 0.00 in0.0 mm 0.00 in0.0 mm
12:15 AM 47.0°F8.3°C 23.3°F-4.8°C 39% 1.2 mph E1.9 kmh E 2.3 mph3.7 kmh 26.74 in905.5 mb - 0.00 in0.0 mm 0.00 in0.0 mm
12:20 AM 47.0°F8.3°C 25.1°F-3.8°C 42% Calm Calm 2.3 mph3.7 kmh 26.74 in905.5 mb - 0.00 in0.0 mm 0.00 in0.0 mm
12:25 AM 47.0°F8.3°C 24.5°F-4.2°C 41% 1.2 mph E1.9 kmh E 2.3 mph3.7 kmh 26.74 in905.5 mb - 0.00 in0.0 mm 0.00 in0.0 mm
12:30 AM 47.0°F8.3°C 23.9°F-4.5°C 40% 1.2 mph NE1.9 kmh NE 2.3 mph3.7 kmh 26.74 in905.5 mb - 0.00 in0.0 mm 0.00 in0.0 mm
12:35 AM 47.0°F8.3°C 23.9°F-4.5°C 40% 3.5 mph SW5.6 kmh SW 5.8 mph9.3 kmh 26.74 in905.5 mb - 0.00 in0.0 mm 0.00 in0.0 mm
12:40 AM 47.0°F8.3°C 23.3°F-4.8°C 39% 3.5 mph S5.6 kmh S 3.5 mph5.6 kmh 26.74 in905.5 mb - 0.00 in0.0 mm 0.00 in0.0 mm
12:45 AM 47.0°F8.3°C 23.9°F-4.5°C 40% 1.2 mph SSW1.9 kmh SSW 2.3 mph3.7 kmh 26.74 in905.5 mb - 0.00 in0.0 mm 0.00 in0.0 mm
12:50 AM 47.0°F8.3°C 23.9°F-4.5°C 40% 3.5 mph E5.6 kmh E 8.1 mph13.0 kmh 26.74 in905.5 mb - 0.00 in0.0 mm 0.00 in0.0 mm
12:55 AM 47.0°F8.3°C 23.9°F-4.5°C 40% 3.5 mph ESE5.6 kmh ESE 8.1 mph13.0 kmh 26.73 in905.2 mb - 0.00 in0.0 mm 0.00 in0.0 mm
01:00 AM 47.0°F8.3°C 23.9°F-4.5°C 40% 3.5 mph E5.6 kmh E 8.1 mph13.0 kmh 26.73 in905.2 mb - 0.00 in0.0 mm 0.00 in0.0 mm
01:10 AM 47.0°F8.3°C 23.3°F-4.8°C 39% 5.8 mph ENE9.3 kmh ENE 9.2 mph14.8 kmh 26.73 in905.2 mb - 0.00 in0.0 mm 0.00 in0.0 mm
01:15 AM 47.0°F8.3°C 23.3°F-4.8°C 39% 3.5 mph SSE5.6 kmh SSE 5.8 mph9.3 kmh 26.73 in905.2 mb - 0.00 in0.0 mm 0.00 in0.0 mm
01:20 AM 47.0°F8.3°C 23.3°F-4.8°C 39% 1.2 mph SE1.9 kmh SE 2.3 mph3.7 kmh 26.73 in905.2 mb - 0.00 in0.0 mm 0.00 in0.0 mm
01:25 AM 47.0°F8.3°C 23.9°F-4.5°C 40% 4.6 mph SW7.4 kmh SW 8.1 mph13.0 kmh 26.72 in904.8 mb - 0.00 in0.0 mm 0.00 in0.0 mm
01:30 AM 47.0°F8.3°C 23.3°F-4.8°C 39% 3.5 mph SSE5.6 kmh SSE 8.1 mph13.0 kmh 26.72 in904.8 mb - 0.00 in0.0 mm 0.00 in0.0 mm
01:35 AM 47.0°F8.3°C 23.3°F-4.8°C 39% 3.5 mph ESE5.6 kmh ESE 3.5 mph5.6 kmh 26.72 in904.8 mb - 0.00 in0.0 mm 0.00 in0.0 mm
01:40 AM 47.0°F8.3°C 23.9°F-4.5°C 40% 2.3 mph WNW3.7 kmh WNW 3.5 mph5.6 kmh 26.72 in904.8 mb - 0.00 in0.0 mm 0.00 in0.0 mm
01:45 AM 47.0°F8.3°C 23.3°F-4.8°C 39% 2.3 mph WNW3.7 kmh WNW 3.5 mph5.6 kmh 26.72 in904.8 mb - 0.00 in0.0 mm 0.00 in0.0 mm
01:50 AM 47.0°F8.3°C 23.9°F-4.5°C 40% 3.5 mph NE5.6 kmh NE 5.8 mph9.3 kmh 26.72 in904.8 mb - 0.00 in0.0 mm 0.00 in0.0 mm
01:55 AM 46.0°F7.8°C 23.0°F-5.0°C 40% 3.5 mph ENE5.6 kmh ENE 6.9 mph11.1 kmh 26.72 in904.8 mb - 0.00 in0.0 mm 0.00 in0.0 mm
02:00 AM 47.0°F8.3°C 23.9°F-4.5°C 40% 3.5 mph SW5.6 kmh SW 5.8 mph9.3 kmh 26.72 in904.8 mb - 0.00 in0.0 mm 0.00 in0.0 mm
02:10 AM 47.0°F8.3°C 23.9°F-4.5°C 40% 3.5 mph WSW5.6 kmh WSW 3.5 mph5.6 kmh 26.73 in905.2 mb - 0.00 in0.0 mm 0.00 in0.0 mm
02:15 AM 46.0°F7.8°C 23.6°F-4.7°C 41% 1.2 mph SSW1.9 kmh SSW 2.3 mph3.7 kmh 26.72 in904.8 mb - 0.00 in0.0 mm 0.00 in0.0 mm
02:20 AM 46.0°F7.8°C 23.0°F-5.0°C 40% 3.5 mph SW5.6 kmh SW 6.9 mph11.1 kmh 26.72 in904.8 mb - 0.00 in0.0 mm 0.00 in0.0 mm
02:25 AM 46.0°F7.8°C 23.0°F-5.0°C 40% 1.2 mph NNW1.9 kmh NNW 1.2 mph1.9 kmh 26.72 in904.8 mb - 0.00 in0.0 mm 0.00 in0.0 mm
02:30 AM 46.0°F7.8°C 24.2°F-4.3°C 42% 1.2 mph NE1.9 kmh NE 1.2 mph1.9 kmh 26.73 in905.2 mb - 0.00 in0.0 mm 0.00 in0.0 mm
02:35 AM 46.0°F7.8°C 24.2°F-4.3°C 42% 1.2 mph NE1.9 kmh NE 2.3 mph3.7 kmh 26.72 in904.8 mb - 0.00 in0.0 mm 0.00 in0.0 mm
02:40 AM 46.0°F7.8°C 24.2°F-4.3°C 42% 1.2 mph ENE1.9 kmh ENE 2.3 mph3.7 kmh 26.72 in904.8 mb - 0.00 in0.0 mm 0.00 in0.0 mm
02:45 AM 46.0°F7.8°C 23.0°F-5.0°C 40% 6.9 mph SW11.1 kmh SW 9.2 mph14.8 kmh 26.72 in904.8 mb - 0.00 in0.0 mm 0.00 in0.0 mm
02:50 AM 46.0°F7.8°C 24.2°F-4.3°C 42% 1.2 mph E1.9 kmh E 2.3 mph3.7 kmh 26.72 in904.8 mb - 0.00 in0.0 mm 0.00 in0.0 mm
02:55 AM 46.0°F7.8°C 24.2°F-4.3°C 42% 1.2 mph N1.9 kmh N 1.2 mph1.9 kmh 26.72 in904.8 mb - 0.00 in0.0 mm 0.00 in0.0 mm
03:00 AM 46.0°F7.8°C 24.2°F-4.3°C 42% 2.3 mph N3.7 kmh N 3.5 mph5.6 kmh 26.72 in904.8 mb - 0.00 in0.0 mm 0.00 in0.0 mm
03:10 AM 46.0°F7.8°C 24.7°F-4.1°C 43% 1.2 mph NE1.9 kmh NE 2.3 mph3.7 kmh 26.72 in904.8 mb - 0.00 in0.0 mm 0.00 in0.0 mm
03:15 AM 46.0°F7.8°C 24.2°F-4.3°C 42% 1.2 mph NE1.9 kmh NE 1.2 mph1.9 kmh 26.73 in905.2 mb - 0.00 in0.0 mm 0.00 in0.0 mm
03:20 AM 46.0°F7.8°C 24.7°F-4.1°C 43% 2.3 mph SE3.7 kmh SE 2.3 mph3.7 kmh 26.72 in904.8 mb - 0.00 in0.0 mm 0.00 in0.0 mm
03:25 AM 46.0°F7.8°C 24.2°F-4.3°C 42% 2.3 mph ESE3.7 kmh ESE 3.5 mph5.6 kmh 26.72 in904.8 mb - 0.00 in0.0 mm 0.00 in0.0 mm
03:30 AM 46.0°F7.8°C 24.7°F-4.1°C 43% Calm Calm 1.2 mph1.9 kmh 26.72 in904.8 mb - 0.00 in0.0 mm 0.00 in0.0 mm
03:35 AM 46.0°F7.8°C 24.2°F-4.3°C 42% Calm Calm 1.2 mph1.9 kmh 26.72 in904.8 mb - 0.00 in0.0 mm 0.00 in0.0 mm
03:40 AM 46.0°F7.8°C 24.2°F-4.3°C 42% Calm Calm 1.2 mph1.9 kmh 26.72 in904.8 mb - 0.00 in0.0 mm 0.00 in0.0 mm
03:45 AM 46.0°F7.8°C 24.2°F-4.3°C 42% Calm Calm 1.2 mph1.9 kmh 26.72 in904.8 mb - 0.00 in0.0 mm 0.00 in0.0 mm
03:50 AM 46.0°F7.8°C 24.2°F-4.3°C 42% 2.3 mph NE3.7 kmh NE 2.3 mph3.7 kmh 26.72 in904.8 mb - 0.00 in0.0 mm 0.00 in0.0 mm
03:55 AM 46.0°F7.8°C 23.6°F-4.7°C 41% 1.2 mph ENE1.9 kmh ENE 1.2 mph1.9 kmh 26.72 in904.8 mb - 0.00 in0.0 mm 0.00 in0.0 mm
04:00 AM 46.0°F7.8°C 23.6°F-4.7°C 41% 1.2 mph NE1.9 kmh NE 2.3 mph3.7 kmh 26.72 in904.8 mb - 0.00 in0.0 mm 0.00 in0.0 mm
04:10 AM 46.0°F7.8°C 25.3°F-3.7°C 44% Calm Calm -- 26.72 in904.8 mb - 0.00 in0.0 mm 0.00 in0.0 mm
04:15 AM 46.0°F7.8°C 25.3°F-3.7°C 44% 1.2 mph ENE1.9 kmh ENE 5.8 mph9.3 kmh 26.72 in904.8 mb - 0.00 in0.0 mm 0.00 in0.0 mm
04:20 AM 46.0°F7.8°C 24.2°F-4.3°C 42% 3.5 mph SE5.6 kmh SE 5.8 mph9.3 kmh 26.72 in904.8 mb - 0.00 in0.0 mm 0.00 in0.0 mm
04:25 AM 46.0°F7.8°C 24.7°F-4.1°C 43% Calm Calm 1.2 mph1.9 kmh 26.72 in904.8 mb - 0.00 in0.0 mm 0.00 in0.0 mm
04:30 AM 46.0°F7.8°C 24.7°F-4.1°C 43% 3.5 mph S5.6 kmh S 5.8 mph9.3 kmh 26.72 in904.8 mb - 0.00 in0.0 mm 0.00 in0.0 mm
04:35 AM 46.0°F7.8°C 25.8°F-3.4°C 45% Calm Calm 1.2 mph1.9 kmh 26.72 in904.8 mb - 0.00 in0.0 mm 0.00 in0.0 mm
04:40 AM 46.0°F7.8°C 27.4°F-2.6°C 48% Calm Calm 1.2 mph1.9 kmh 26.72 in904.8 mb - 0.00 in0.0 mm 0.00 in0.0 mm
04:45 AM 46.0°F7.8°C 26.9°F-2.8°C 47% Calm Calm 1.2 mph1.9 kmh 26.72 in904.8 mb - 0.00 in0.0 mm 0.00 in0.0 mm
04:50 AM 46.0°F7.8°C 25.8°F-3.4°C 45% Calm Calm 1.2 mph1.9 kmh 26.72 in904.8 mb - 0.00 in0.0 mm 0.00 in0.0 mm
04:55 AM 46.0°F7.8°C 25.3°F-3.7°C 44% 1.2 mph S1.9 kmh S 2.3 mph3.7 kmh 26.73 in905.2 mb - 0.00 in0.0 mm 0.00 in0.0 mm
05:00 AM 46.0°F7.8°C 26.9°F-2.8°C 47% Calm Calm 1.2 mph1.9 kmh 26.72 in904.8 mb - 0.00 in0.0 mm 0.00 in0.0 mm
05:10 AM 46.0°F7.8°C 26.4°F-3.1°C 46% 3.5 mph NE5.6 kmh NE 6.9 mph11.1 kmh 26.74 in905.5 mb - 0.00 in0.0 mm 0.00 in0.0 mm
05:15 AM 46.0°F7.8°C 25.8°F-3.4°C 45% 2.3 mph ENE3.7 kmh ENE 6.9 mph11.1 kmh 26.74 in905.5 mb - 0.00 in0.0 mm 0.00 in0.0 mm
05:20 AM 46.0°F7.8°C 25.3°F-3.7°C 44% 1.2 mph SSE1.9 kmh SSE 1.2 mph1.9 kmh 26.73 in905.2 mb - 0.00 in0.0 mm 0.00 in0.0 mm
05:25 AM 46.0°F7.8°C 25.8°F-3.4°C 45% 2.3 mph NW3.7 kmh NW 3.5 mph5.6 kmh 26.73 in905.2 mb - 0.00 in0.0 mm 0.00 in0.0 mm
05:30 AM 46.0°F7.8°C 26.4°F-3.1°C 46% Calm Calm 1.2 mph1.9 kmh 26.73 in905.2 mb - 0.00 in0.0 mm 0.00 in0.0 mm
05:35 AM 46.0°F7.8°C 25.8°F-3.4°C 45% 1.2 mph NE1.9 kmh NE 1.2 mph1.9 kmh 26.73 in905.2 mb - 0.00 in0.0 mm 0.00 in0.0 mm
05:40 AM 46.0°F7.8°C 24.7°F-4.1°C 43% 2.3 mph WSW3.7 kmh WSW 2.3 mph3.7 kmh 26.72 in904.8 mb - 0.00 in0.0 mm 0.00 in0.0 mm
05:45 AM 46.0°F7.8°C 25.3°F-3.7°C 44% 1.2 mph WSW1.9 kmh WSW 2.3 mph3.7 kmh 26.72 in904.8 mb - 0.00 in0.0 mm 0.00 in0.0 mm
05:50 AM 46.0°F7.8°C 26.4°F-3.1°C 46% Calm Calm -- 26.72 in904.8 mb - 0.00 in0.0 mm 0.00 in0.0 mm
05:55 AM 47.0°F8.3°C 26.7°F-2.9°C 45% Calm Calm -- 26.72 in904.8 mb - 0.00 in0.0 mm 0.00 in0.0 mm
06:00 AM 47.0°F8.3°C 26.2°F-3.2°C 44% Calm Calm 1.2 mph1.9 kmh 26.72 in904.8 mb - 0.00 in0.0 mm 0.00 in0.0 mm
06:10 AM 48.0°F8.9°C 26.5°F-3.1°C 43% 2.3 mph SW3.7 kmh SW 3.5 mph5.6 kmh 26.72 in904.8 mb - 0.00 in0.0 mm 0.00 in0.0 mm
06:15 AM 48.0°F8.9°C 26.5°F-3.1°C 43% 1.2 mph SSW1.9 kmh SSW 3.5 mph5.6 kmh 26.72 in904.8 mb - 0.00 in0.0 mm 0.00 in0.0 mm
06:20 AM 48.0°F8.9°C 26.5°F-3.1°C 43% 1.2 mph NE1.9 kmh NE 1.2 mph1.9 kmh 26.72 in904.8 mb - 0.00 in0.0 mm 0.00 in0.0 mm
06:25 AM 48.0°F8.9°C 27.1°F-2.7°C 44% 1.2 mph ENE1.9 kmh ENE 2.3 mph3.7 kmh 26.72 in904.8 mb - 0.00 in0.0 mm 0.00 in0.0 mm
06:30 AM 48.0°F8.9°C 25.4°F-3.7°C 41% 3.5 mph SW5.6 kmh SW 3.5 mph5.6 kmh 26.71 in904.5 mb - 0.00 in0.0 mm 0.00 in0.0 mm
06:35 AM 48.0°F8.9°C 27.6°F-2.4°C 45% 2.3 mph E3.7 kmh E 2.3 mph3.7 kmh 26.72 in904.8 mb - 0.00 in0.0 mm 0.00 in0.0 mm
06:40 AM 49.0°F9.4°C 26.9°F-2.8°C 42% 1.2 mph ESE1.9 kmh ESE 2.3 mph3.7 kmh 26.70 in904.2 mb - 0.00 in0.0 mm 0.00 in0.0 mm
06:45 AM 49.0°F9.4°C 26.9°F-2.8°C 42% 1.2 mph E1.9 kmh E 2.3 mph3.7 kmh 26.70 in904.2 mb - 0.00 in0.0 mm 0.00 in0.0 mm
06:50 AM 49.0°F9.4°C 26.9°F-2.8°C 42% 1.2 mph NE1.9 kmh NE 1.2 mph1.9 kmh 26.70 in904.2 mb - 0.00 in0.0 mm 0.00 in0.0 mm
06:55 AM 49.0°F9.4°C 26.9°F-2.8°C 42% 2.3 mph SSW3.7 kmh SSW 3.5 mph5.6 kmh 26.71 in904.5 mb - 0.00 in0.0 mm 0.00 in0.0 mm
07:00 AM 49.0°F9.4°C 26.9°F-2.8°C 42% 1.2 mph W1.9 kmh W 3.5 mph5.6 kmh 26.70 in904.2 mb - 0.00 in0.0 mm 0.00 in0.0 mm
07:10 AM 50.0°F10.0°C 28.4°F-2.0°C 43% 1.2 mph NE1.9 kmh NE 1.2 mph1.9 kmh 26.70 in904.2 mb - 0.00 in0.0 mm 0.00 in0.0 mm
07:15 AM 50.0°F10.0°C 27.8°F-2.3°C 42% 1.2 mph N1.9 kmh N 3.5 mph5.6 kmh 26.70 in904.2 mb - 0.00 in0.0 mm 0.00 in0.0 mm
07:20 AM 50.0°F10.0°C 27.2°F-2.7°C 41% 2.3 mph WSW3.7 kmh WSW 3.5 mph5.6 kmh 26.70 in904.2 mb - 0.00 in0.0 mm 0.00 in0.0 mm
07:25 AM 50.0°F10.0°C 28.4°F-2.0°C 43% Calm Calm -- 26.70 in904.2 mb - 0.00 in0.0 mm 0.00 in0.0 mm
07:30 AM 50.0°F10.0°C 27.8°F-2.3°C 42% 2.3 mph ESE3.7 kmh ESE 2.3 mph3.7 kmh 26.70 in904.2 mb - 0.00 in0.0 mm 0.00 in0.0 mm
07:35 AM 51.0°F10.6°C 27.5°F-2.5°C 40% 2.3 mph SW3.7 kmh SW 2.3 mph3.7 kmh 26.69 in903.8 mb - 0.00 in0.0 mm 0.00 in0.0 mm
07:40 AM 51.0°F10.6°C 27.5°F-2.5°C 40% 1.2 mph SSE1.9 kmh SSE 3.5 mph5.6 kmh 26.69 in903.8 mb - 0.00 in0.0 mm 0.00 in0.0 mm
07:45 AM 51.2°F10.7°C 27.7°F-2.4°C 40% 1.2 mph SSE1.9 kmh SSE 3.5 mph5.6 kmh 26.69 in903.8 mb - 0.00 in0.0 mm 0.00 in0.0 mm
07:50 AM 52.0°F11.1°C 27.8°F-2.3°C 39% 2.3 mph SE3.7 kmh SE 2.3 mph3.7 kmh 26.69 in903.8 mb - 0.00 in0.0 mm 0.00 in0.0 mm
07:55 AM 52.0°F11.1°C 27.8°F-2.3°C 39% 2.3 mph SSW3.7 kmh SSW 3.5 mph5.6 kmh 26.70 in904.2 mb - 0.00 in0.0 mm 0.00 in0.0 mm
08:00 AM 52.0°F11.1°C 28.4°F-2.0°C 40% 1.2 mph WSW1.9 kmh WSW 2.3 mph3.7 kmh 26.69 in903.8 mb - 0.00 in0.0 mm 0.00 in0.0 mm
08:10 AM 53.0°F11.7°C 28.7°F-1.8°C 39% 1.2 mph SW1.9 kmh SW 3.5 mph5.6 kmh 26.68 in903.5 mb - 0.00 in0.0 mm 0.00 in0.0 mm
08:15 AM 53.0°F11.7°C 28.7°F-1.8°C 39% 1.2 mph SW1.9 kmh SW 2.3 mph3.7 kmh 26.68 in903.5 mb - 0.00 in0.0 mm 0.00 in0.0 mm
08:20 AM 54.0°F12.2°C 30.8°F-0.7°C 41% 2.3 mph SSE3.7 kmh SSE 2.3 mph3.7 kmh 26.68 in903.5 mb - 0.00 in0.0 mm 0.00 in0.0 mm
08:25 AM 54.0°F12.2°C 29.6°F-1.3°C 39% 1.2 mph NE1.9 kmh NE 1.2 mph1.9 kmh 26.68 in903.5 mb - 0.00 in0.0 mm 0.00 in0.0 mm
08:30 AM 54.0°F12.2°C 28.9°F-1.7°C 38% 1.2 mph E1.9 kmh E 2.3 mph3.7 kmh 26.69 in903.8 mb - 0.00 in0.0 mm 0.00 in0.0 mm
08:35 AM 54.0°F12.2°C 30.2°F-1.0°C 40% Calm Calm 2.3 mph3.7 kmh 26.69 in903.8 mb - 0.00 in0.0 mm 0.00 in0.0 mm
08:40 AM 53.0°F11.7°C 29.3°F-1.5°C 40% Calm Calm -- 26.69 in903.8 mb - 0.00 in0.0 mm 0.00 in0.0 mm
08:45 AM 53.0°F11.7°C 29.3°F-1.5°C 40% Calm Calm 1.2 mph1.9 kmh 26.69 in903.8 mb - 0.00 in0.0 mm 0.00 in0.0 mm
08:50 AM 54.0°F12.2°C 31.4°F-0.3°C 42% Calm Calm -- 26.69 in903.8 mb - 0.00 in0.0 mm 0.00 in0.0 mm
08:55 AM 54.0°F12.2°C 28.3°F-2.1°C 37% 1.2 mph NE1.9 kmh NE 2.3 mph3.7 kmh 26.69 in903.8 mb - 0.00 in0.0 mm 0.00 in0.0 mm
09:00 AM 55.0°F12.8°C 29.2°F-1.6°C 37% 1.2 mph NE1.9 kmh NE 1.2 mph1.9 kmh 26.68 in903.5 mb - 0.00 in0.0 mm 0.00 in0.0 mm
09:10 AM 57.0°F13.9°C 28.9°F-1.7°C 34% 1.2 mph NE1.9 kmh NE 2.3 mph3.7 kmh 26.68 in903.5 mb - 0.00 in0.0 mm 0.00 in0.0 mm
09:15 AM 58.0°F14.4°C 30.5°F-0.8°C 35% 2.3 mph ESE3.7 kmh ESE 2.3 mph3.7 kmh 26.67 in903.2 mb - 0.00 in0.0 mm 0.00 in0.0 mm
09:20 AM 59.0°F15.0°C 30.6°F-0.8°C 34% 2.3 mph N3.7 kmh N 2.3 mph3.7 kmh 26.68 in903.5 mb - 0.00 in0.0 mm 0.00 in0.0 mm
09:25 AM 56.0°F13.3°C 29.4°F-1.4°C 36% 2.3 mph ENE3.7 kmh ENE 3.5 mph5.6 kmh 26.67 in903.2 mb - 0.00 in0.0 mm 0.00 in0.0 mm
09:30 AM 55.3°F12.9°C 29.4°F-1.4°C 37% 2.3 mph ENE3.7 kmh ENE 3.5 mph5.6 kmh 26.68 in903.5 mb - 0.00 in0.0 mm 0.00 in0.0 mm
09:35 AM 55.0°F12.8°C 29.2°F-1.6°C 37% 2.3 mph ENE3.7 kmh ENE 3.5 mph5.6 kmh 26.69 in903.8 mb - 0.00 in0.0 mm 0.00 in0.0 mm
09:40 AM 57.0°F13.9°C 31.0°F-0.6°C 37% 1.2 mph ENE1.9 kmh ENE 2.3 mph3.7 kmh 26.68 in903.5 mb - 0.00 in0.0 mm 0.00 in0.0 mm
09:45 AM 58.0°F14.4°C 29.8°F-1.2°C 34% 3.5 mph SSE5.6 kmh SSE 3.5 mph5.6 kmh 26.68 in903.5 mb - 0.00 in0.0 mm 0.00 in0.0 mm
09:50 AM 59.0°F15.0°C 29.9°F-1.2°C 33% 2.3 mph SW3.7 kmh SW 3.5 mph5.6 kmh 26.68 in903.5 mb - 0.00 in0.0 mm 0.00 in0.0 mm
09:55 AM 61.0°F16.1°C 30.9°F-0.6°C 32% 3.5 mph SE5.6 kmh SE 3.5 mph5.6 kmh 26.67 in903.2 mb - 0.00 in0.0 mm 0.00 in0.0 mm
10:00 AM 61.4°F16.3°C 31.2°F-0.4°C 32% 3.5 mph ESE5.6 kmh ESE 3.5 mph5.6 kmh 26.67 in903.2 mb - 0.00 in0.0 mm 0.00 in0.0 mm
10:10 AM 62.0°F16.7°C 32.5°F0.3°C 33% 1.2 mph ENE1.9 kmh ENE 1.2 mph1.9 kmh 26.67 in903.2 mb - 0.00 in0.0 mm 0.00 in0.0 mm
10:15 AM 61.0°F16.1°C 30.9°F-0.6°C 32% 3.5 mph NW5.6 kmh NW 8.1 mph13.0 kmh 26.68 in903.5 mb - 0.00 in0.0 mm 0.00 in0.0 mm
10:20 AM 61.0°F16.1°C 30.9°F-0.6°C 32% 3.5 mph WSW5.6 kmh WSW 5.8 mph9.3 kmh 26.68 in903.5 mb - 0.00 in0.0 mm 0.00 in0.0 mm
10:25 AM 61.9°F16.6°C 31.7°F-0.2°C 32% 4.6 mph SW7.4 kmh SW 6.9 mph11.1 kmh 26.67 in903.2 mb - 0.00 in0.0 mm 0.00 in0.0 mm
10:30 AM 62.0°F16.7°C 31.8°F-0.1°C 32% 4.6 mph SW7.4 kmh SW 6.9 mph11.1 kmh 26.67 in903.2 mb - 0.00 in0.0 mm 0.00 in0.0 mm
10:35 AM 62.0°F16.7°C 31.8°F-0.1°C 32% 2.3 mph SW3.7 kmh SW 3.5 mph5.6 kmh 26.67 in903.2 mb - 0.00 in0.0 mm 0.00 in0.0 mm
10:40 AM 62.0°F16.7°C 31.8°F-0.1°C 32% 2.3 mph S3.7 kmh S 3.5 mph5.6 kmh 26.67 in903.2 mb - 0.00 in0.0 mm 0.00 in0.0 mm
10:45 AM 63.0°F17.2°C 32.7°F0.4°C 32% 2.3 mph SW3.7 kmh SW 3.5 mph5.6 kmh 26.66 in902.8 mb - 0.00 in0.0 mm 0.00 in0.0 mm
10:50 AM 63.0°F17.2°C 33.4°F0.8°C 33% 2.3 mph SE3.7 kmh SE 2.3 mph3.7 kmh 26.68 in903.5 mb - 0.00 in0.0 mm 0.00 in0.0 mm
10:55 AM 63.0°F17.2°C 33.4°F0.8°C 33% 1.2 mph SSE1.9 kmh SSE 2.3 mph3.7 kmh 26.68 in903.5 mb - 0.00 in0.0 mm 0.00 in0.0 mm
11:00 AM 62.0°F16.7°C 32.5°F0.3°C 33% 1.2 mph WSW1.9 kmh WSW 2.3 mph3.7 kmh 26.67 in903.2 mb - 0.00 in0.0 mm 0.00 in0.0 mm
11:10 AM 62.0°F16.7°C 32.5°F0.3°C 33% 3.5 mph NE5.6 kmh NE 6.9 mph11.1 kmh 26.67 in903.2 mb - 0.00 in0.0 mm 0.00 in0.0 mm
11:15 AM 63.0°F17.2°C 31.0°F-0.6°C 30% 3.5 mph WSW5.6 kmh WSW 3.5 mph5.6 kmh 26.66 in902.8 mb - 0.00 in0.0 mm 0.00 in0.0 mm
11:20 AM 63.9°F17.7°C 33.5°F0.8°C 32% 2.3 mph SW3.7 kmh SW 3.5 mph5.6 kmh 26.66 in902.8 mb - 0.00 in0.0 mm 0.00 in0.0 mm
11:25 AM 64.0°F17.8°C 33.5°F0.8°C 32% 2.3 mph SSW3.7 kmh SSW 6.9 mph11.1 kmh 26.66 in902.8 mb - 0.00 in0.0 mm 0.00 in0.0 mm
11:30 AM 63.0°F17.2°C 34.2°F1.2°C 34% 3.5 mph SSE5.6 kmh SSE 6.9 mph11.1 kmh 26.65 in902.5 mb - 0.00 in0.0 mm 0.00 in0.0 mm
11:35 AM 64.0°F17.8°C 35.8°F2.1°C 35% 2.3 mph ESE3.7 kmh ESE 2.3 mph3.7 kmh 26.66 in902.8 mb - 0.00 in0.0 mm 0.00 in0.0 mm
11:40 AM 64.0°F17.8°C 35.0°F1.7°C 34% 1.2 mph ESE1.9 kmh ESE 2.3 mph3.7 kmh 26.66 in902.8 mb - 0.00 in0.0 mm 0.00 in0.0 mm
11:45 AM 64.0°F17.8°C 32.7°F0.4°C 31% 2.3 mph SSE3.7 kmh SSE 3.5 mph5.6 kmh 26.67 in903.2 mb - 0.00 in0.0 mm 0.00 in0.0 mm
11:50 AM 64.0°F17.8°C 33.5°F0.8°C 32% 3.5 mph SE5.6 kmh SE 3.5 mph5.6 kmh 26.66 in902.8 mb - 0.00 in0.0 mm 0.00 in0.0 mm
11:55 AM 64.0°F17.8°C 34.3°F1.3°C 33% 3.5 mph SE5.6 kmh SE 3.5 mph5.6 kmh 26.66 in902.8 mb - 0.00 in0.0 mm 0.00 in0.0 mm
12:00 PM 63.0°F17.2°C 34.2°F1.2°C 34% 2.3 mph E3.7 kmh E 2.3 mph3.7 kmh 26.66 in902.8 mb - 0.00 in0.0 mm 0.00 in0.0 mm
12:10 PM 64.0°F17.8°C 33.5°F0.8°C 32% 3.5 mph NW5.6 kmh NW 3.5 mph5.6 kmh 26.66 in902.8 mb - 0.00 in0.0 mm 0.00 in0.0 mm
12:15 PM 66.0°F18.9°C 33.7°F0.9°C 30% 3.5 mph W5.6 kmh W 6.9 mph11.1 kmh 26.67 in903.2 mb - 0.00 in0.0 mm 0.00 in0.0 mm
12:20 PM 66.0°F18.9°C 33.7°F0.9°C 30% 4.6 mph W7.4 kmh W 8.1 mph13.0 kmh 26.67 in903.2 mb - 0.00 in0.0 mm 0.00 in0.0 mm
12:25 PM 65.0°F18.3°C 34.4°F1.3°C 32% 5.8 mph WSW9.3 kmh WSW 8.1 mph13.0 kmh 26.66 in902.8 mb - 0.00 in0.0 mm 0.00 in0.0 mm
12:30 PM 66.0°F18.9°C 34.5°F1.4°C 31% 3.5 mph SSW5.6 kmh SSW 5.8 mph9.3 kmh 26.66 in902.8 mb - 0.00 in0.0 mm 0.00 in0.0 mm
12:35 PM 66.0°F18.9°C 35.3°F1.8°C 32% 1.2 mph E1.9 kmh E 2.3 mph3.7 kmh 26.65 in902.5 mb - 0.00 in0.0 mm 0.00 in0.0 mm
12:40 PM 65.0°F18.3°C 34.4°F1.3°C 32% 4.6 mph S7.4 kmh S 9.2 mph14.8 kmh 26.65 in902.5 mb - 0.00 in0.0 mm 0.00 in0.0 mm
12:45 PM 65.0°F18.3°C 34.4°F1.3°C 32% 5.8 mph SW9.3 kmh SW 11.5 mph18.5 kmh 26.65 in902.5 mb - 0.00 in0.0 mm 0.00 in0.0 mm
12:50 PM 65.0°F18.3°C 34.4°F1.3°C 32% 5.8 mph WSW9.3 kmh WSW 11.5 mph18.5 kmh 26.65 in902.5 mb - 0.00 in0.0 mm 0.00 in0.0 mm
12:55 PM 63.0°F17.2°C 33.4°F0.8°C 33% 3.5 mph S5.6 kmh S 5.8 mph9.3 kmh 26.66 in902.8 mb - 0.00 in0.0 mm 0.00 in0.0 mm
01:00 PM 65.0°F18.3°C 35.2°F1.8°C 33% 2.3 mph ESE3.7 kmh ESE 3.5 mph5.6 kmh 26.65 in902.5 mb - 0.00 in0.0 mm 0.00 in0.0 mm
01:10 PM 65.0°F18.3°C 34.4°F1.3°C 32% 2.3 mph SW3.7 kmh SW 2.3 mph3.7 kmh 26.65 in902.5 mb - 0.00 in0.0 mm 0.00 in0.0 mm
01:15 PM 65.2°F18.4°C 34.6°F1.4°C 32% 2.3 mph SSW3.7 kmh SSW 5.8 mph9.3 kmh 26.65 in902.5 mb - 0.00 in0.0 mm 0.00 in0.0 mm
01:20 PM 66.0°F18.9°C 34.5°F1.4°C 31% 3.5 mph SSW5.6 kmh SSW 5.8 mph9.3 kmh 26.66 in902.8 mb - 0.00 in0.0 mm 0.00 in0.0 mm
01:25 PM 65.0°F18.3°C 33.6°F0.9°C 31% 3.5 mph W5.6 kmh W 5.8 mph9.3 kmh 26.65 in902.5 mb - 0.00 in0.0 mm 0.00 in0.0 mm
01:30 PM 64.0°F17.8°C 33.5°F0.8°C 32% 3.5 mph WNW5.6 kmh WNW 5.8 mph9.3 kmh 26.65 in902.5 mb - 0.00 in0.0 mm 0.00 in0.0 mm
01:35 PM 64.0°F17.8°C 33.5°F0.8°C 32% 3.5 mph E5.6 kmh E 3.5 mph5.6 kmh 26.65 in902.5 mb - 0.00 in0.0 mm 0.00 in0.0 mm
01:40 PM 64.0°F17.8°C 33.5°F0.8°C 32% 4.6 mph S7.4 kmh S 10.4 mph16.7 kmh 26.65 in902.5 mb - 0.00 in0.0 mm 0.00 in0.0 mm
01:45 PM 64.0°F17.8°C 33.5°F0.8°C 32% 4.6 mph SSW7.4 kmh SSW 10.4 mph16.7 kmh 26.65 in902.5 mb - 0.00 in0.0 mm 0.00 in0.0 mm
01:50 PM 63.0°F17.2°C 35.6°F2.0°C 36% 2.3 mph ESE3.7 kmh ESE 3.5 mph5.6 kmh 26.64 in902.1 mb - 0.00 in0.0 mm 0.00 in0.0 mm
01:55 PM 62.0°F16.7°C 34.0°F1.1°C 35% 3.5 mph SE5.6 kmh SE 3.5 mph5.6 kmh 26.65 in902.5 mb - 0.00 in0.0 mm 0.00 in0.0 mm
02:00 PM 64.0°F17.8°C 34.3°F1.3°C 33% 2.3 mph WSW3.7 kmh WSW 3.5 mph5.6 kmh 26.65 in902.5 mb - 0.00 in0.0 mm 0.00 in0.0 mm
02:10 PM 62.6°F17.0°C 34.6°F1.4°C 35% 1.2 mph NW1.9 kmh NW 2.3 mph3.7 kmh 26.64 in902.1 mb - 0.00 in0.0 mm 0.00 in0.0 mm
02:15 PM 62.0°F16.7°C 34.7°F1.5°C 36% 2.3 mph W3.7 kmh W 2.3 mph3.7 kmh 26.65 in902.5 mb - 0.00 in0.0 mm 0.00 in0.0 mm
02:20 PM 61.0°F16.1°C 33.8°F1.0°C 36% 2.3 mph W3.7 kmh W 3.5 mph5.6 kmh 26.65 in902.5 mb - 0.00 in0.0 mm 0.00 in0.0 mm
02:25 PM 60.0°F15.6°C 34.3°F1.3°C 38% Calm Calm 1.2 mph1.9 kmh 26.66 in902.8 mb - 0.00 in0.0 mm 0.00 in0.0 mm
02:30 PM 60.0°F15.6°C 33.6°F0.9°C 37% 2.3 mph E3.7 kmh E 3.5 mph5.6 kmh 26.66 in902.8 mb - 0.00 in0.0 mm 0.00 in0.0 mm
02:35 PM 59.0°F15.0°C 33.4°F0.8°C 38% Calm Calm 3.5 mph5.6 kmh 26.67 in903.2 mb - 0.00 in0.0 mm 0.00 in0.0 mm
02:40 PM 59.0°F15.0°C 33.4°F0.8°C 38% Calm Calm 1.2 mph1.9 kmh 26.67 in903.2 mb - 0.00 in0.0 mm 0.00 in0.0 mm
02:45 PM 59.0°F15.0°C 33.4°F0.8°C 38% Calm Calm -- 26.67 in903.2 mb - 0.00 in0.0 mm 0.00 in0.0 mm
02:50 PM 59.0°F15.0°C 32.7°F0.4°C 37% 1.2 mph SE1.9 kmh SE 1.2 mph1.9 kmh 26.67 in903.2 mb - 0.00 in0.0 mm 0.00 in0.0 mm
02:55 PM 59.0°F15.0°C 33.4°F0.8°C 38% 1.2 mph ENE1.9 kmh ENE 2.3 mph3.7 kmh 26.67 in903.2 mb - 0.00 in0.0 mm 0.00 in0.0 mm
03:00 PM 59.0°F15.0°C 33.4°F0.8°C 38% 2.3 mph S3.7 kmh S 2.3 mph3.7 kmh 26.67 in903.2 mb - 0.00 in0.0 mm 0.00 in0.0 mm
03:10 PM 59.0°F15.0°C 33.4°F0.8°C 38% 1.2 mph E1.9 kmh E 2.3 mph3.7 kmh 26.67 in903.2 mb - 0.00 in0.0 mm 0.00 in0.0 mm
03:15 PM 59.0°F15.0°C 34.1°F1.2°C 39% 3.5 mph SSE5.6 kmh SSE 3.5 mph5.6 kmh 26.67 in903.2 mb - 0.00 in0.0 mm 0.00 in0.0 mm
03:20 PM 58.0°F14.4°C 32.5°F0.3°C 38% Calm Calm 1.2 mph1.9 kmh 26.68 in903.5 mb - 0.00 in0.0 mm 0.00 in0.0 mm
03:25 PM 58.0°F14.4°C 34.4°F1.3°C 41% Calm Calm -- 26.68 in903.5 mb - 0.00 in0.0 mm 0.00 in0.0 mm
03:30 PM 58.0°F14.4°C 33.8°F1.0°C 40% 1.2 mph NE1.9 kmh NE 3.5 mph5.6 kmh 26.68 in903.5 mb - 0.00 in0.0 mm 0.00 in0.0 mm
03:35 PM 58.0°F14.4°C 33.2°F0.7°C 39% 1.2 mph N1.9 kmh N 3.5 mph5.6 kmh 26.68 in903.5 mb - 0.00 in0.0 mm 0.00 in0.0 mm
03:40 PM 58.0°F14.4°C 32.5°F0.3°C 38% 2.3 mph W3.7 kmh W 3.5 mph5.6 kmh 26.68 in903.5 mb - 0.00 in0.0 mm 0.00 in0.0 mm
03:45 PM 57.0°F13.9°C 32.3°F0.2°C 39% 2.3 mph SE3.7 kmh SE 3.5 mph5.6 kmh 26.68 in903.5 mb - 0.00 in0.0 mm 0.00 in0.0 mm
03:50 PM 57.0°F13.9°C 32.3°F0.2°C 39% 5.8 mph S9.3 kmh S 9.2 mph14.8 kmh 26.70 in904.2 mb - 0.00 in0.0 mm 0.00 in0.0 mm
03:55 PM 57.0°F13.9°C 32.9°F0.5°C 40% 1.2 mph ENE1.9 kmh ENE 1.2 mph1.9 kmh 26.69 in903.8 mb - 0.00 in0.0 mm 0.00 in0.0 mm
04:00 PM 57.0°F13.9°C 32.9°F0.5°C 40% 2.3 mph WSW3.7 kmh WSW 3.5 mph5.6 kmh 26.70 in904.2 mb - 0.00 in0.0 mm 0.00 in0.0 mm
04:10 PM 57.0°F13.9°C 32.3°F0.2°C 39% 3.5 mph SW5.6 kmh SW 5.8 mph9.3 kmh 26.69 in903.8 mb - 0.00 in0.0 mm 0.00 in0.0 mm
04:15 PM 57.0°F13.9°C 32.9°F0.5°C 40% 2.3 mph NE3.7 kmh NE 3.5 mph5.6 kmh 26.70 in904.2 mb - 0.00 in0.0 mm 0.00 in0.0 mm
04:20 PM 57.0°F13.9°C 32.9°F0.5°C 40% 2.3 mph NE3.7 kmh NE 3.5 mph5.6 kmh 26.69 in903.8 mb - 0.00 in0.0 mm 0.00 in0.0 mm
04:25 PM 57.0°F13.9°C 32.3°F0.2°C 39% 1.2 mph NE1.9 kmh NE 1.2 mph1.9 kmh 26.69 in903.8 mb - 0.00 in0.0 mm 0.00 in0.0 mm
04:30 PM 57.6°F14.2°C 32.1°F0.1°C 38% 1.2 mph NW1.9 kmh NW 3.5 mph5.6 kmh 26.69 in903.8 mb - 0.00 in0.0 mm 0.00 in0.0 mm
04:35 PM 58.0°F14.4°C 32.5°F0.3°C 38% 2.3 mph NW3.7 kmh NW 3.5 mph5.6 kmh 26.69 in903.8 mb - 0.00 in0.0 mm 0.00 in0.0 mm
04:40 PM 56.0°F13.3°C 31.4°F-0.3°C 39% 2.3 mph SW3.7 kmh SW 3.5 mph5.6 kmh 26.69 in903.8 mb - 0.00 in0.0 mm 0.00 in0.0 mm
04:45 PM 56.0°F13.3°C 32.6°F0.3°C 41% 2.3 mph SW3.7 kmh SW 3.5 mph5.6 kmh 26.69 in903.8 mb - 0.00 in0.0 mm 0.00 in0.0 mm
04:50 PM 56.0°F13.3°C 31.4°F-0.3°C 39% 2.3 mph WSW3.7 kmh WSW 3.5 mph5.6 kmh 26.70 in904.2 mb - 0.00 in0.0 mm 0.00 in0.0 mm
04:55 PM 56.0°F13.3°C 32.0°F0.0°C 40% 2.3 mph ENE3.7 kmh ENE 3.5 mph5.6 kmh 26.69 in903.8 mb - 0.00 in0.0 mm 0.00 in0.0 mm
05:00 PM 56.0°F13.3°C 32.0°F0.0°C 40% 2.3 mph ENE3.7 kmh ENE 3.5 mph5.6 kmh 26.69 in903.8 mb - 0.00 in0.0 mm 0.00 in0.0 mm
05:10 PM 57.0°F13.9°C 31.6°F-0.2°C 38% 3.5 mph E5.6 kmh E 3.5 mph5.6 kmh 26.70 in904.2 mb - 0.00 in0.0 mm 0.00 in0.0 mm
05:15 PM 56.0°F13.3°C 31.4°F-0.3°C 39% 2.3 mph W3.7 kmh W 3.5 mph5.6 kmh 26.69 in903.8 mb - 0.00 in0.0 mm 0.00 in0.0 mm
05:20 PM 56.9°F13.8°C 32.8°F0.4°C 40% 4.6 mph S7.4 kmh S 6.9 mph11.1 kmh 26.69 in903.8 mb - 0.00 in0.0 mm 0.00 in0.0 mm
05:25 PM 57.0°F13.9°C 32.9°F0.5°C 40% 4.6 mph S7.4 kmh S 6.9 mph11.1 kmh 26.69 in903.8 mb - 0.00 in0.0 mm 0.00 in0.0 mm
05:30 PM 56.0°F13.3°C 33.2°F0.7°C 42% 2.3 mph E3.7 kmh E 3.5 mph5.6 kmh 26.70 in904.2 mb - 0.00 in0.0 mm 0.00 in0.0 mm
05:35 PM 55.0°F12.8°C 32.3°F0.2°C 42% 1.2 mph E1.9 kmh E 1.2 mph1.9 kmh 26.70 in904.2 mb - 0.00 in0.0 mm 0.00 in0.0 mm
05:40 PM 56.0°F13.3°C 32.0°F0.0°C 40% 3.5 mph E5.6 kmh E 6.9 mph11.1 kmh 26.69 in903.8 mb - 0.00 in0.0 mm 0.00 in0.0 mm
05:45 PM 56.9°F13.8°C 32.2°F0.1°C 39% 2.3 mph SSE3.7 kmh SSE 6.9 mph11.1 kmh 26.70 in904.2 mb - 0.00 in0.0 mm 0.00 in0.0 mm
05:50 PM 57.0°F13.9°C 32.3°F0.2°C 39% 2.3 mph SSE3.7 kmh SSE 3.5 mph5.6 kmh 26.70 in904.2 mb - 0.00 in0.0 mm 0.00 in0.0 mm
05:55 PM 56.0°F13.3°C 31.4°F-0.3°C 39% 2.3 mph NW3.7 kmh NW 3.5 mph5.6 kmh 26.70 in904.2 mb - 0.00 in0.0 mm 0.00 in0.0 mm
06:00 PM 56.0°F13.3°C 31.4°F-0.3°C 39% 3.5 mph SSE5.6 kmh SSE 5.8 mph9.3 kmh 26.70 in904.2 mb - 0.00 in0.0 mm 0.00 in0.0 mm
06:10 PM 54.0°F12.2°C 31.4°F-0.3°C 42% 2.3 mph S3.7 kmh S 5.8 mph9.3 kmh 26.71 in904.5 mb - 0.00 in0.0 mm 0.00 in0.0 mm
06:15 PM 54.0°F12.2°C 31.4°F-0.3°C 42% 2.3 mph S3.7 kmh S 3.5 mph5.6 kmh 26.71 in904.5 mb - 0.00 in0.0 mm 0.00 in0.0 mm
06:20 PM 53.0°F11.7°C 31.1°F-0.5°C 43% 2.3 mph SSE3.7 kmh SSE 3.5 mph5.6 kmh 26.71 in904.5 mb - 0.00 in0.0 mm 0.00 in0.0 mm
06:25 PM 53.0°F11.7°C 31.6°F-0.2°C 44% 1.2 mph E1.9 kmh E 1.2 mph1.9 kmh 26.71 in904.5 mb - 0.00 in0.0 mm 0.00 in0.0 mm
06:30 PM 53.0°F11.7°C 31.6°F-0.2°C 44% 1.2 mph ENE1.9 kmh ENE 2.3 mph3.7 kmh 26.70 in904.2 mb - 0.00 in0.0 mm 0.00 in0.0 mm
06:35 PM 53.0°F11.7°C 32.8°F0.4°C 46% Calm Calm 2.3 mph3.7 kmh 26.71 in904.5 mb - 0.00 in0.0 mm 0.00 in0.0 mm
06:40 PM 53.0°F11.7°C 33.3°F0.7°C 47% Calm Calm 1.2 mph1.9 kmh 26.71 in904.5 mb - 0.00 in0.0 mm 0.00 in0.0 mm
06:45 PM 53.0°F11.7°C 30.5°F-0.8°C 42% 1.2 mph WSW1.9 kmh WSW 1.2 mph1.9 kmh 26.71 in904.5 mb - 0.00 in0.0 mm 0.00 in0.0 mm
06:50 PM 53.0°F11.7°C 32.2°F0.1°C 45% Calm Calm -- 26.71 in904.5 mb - 0.00 in0.0 mm 0.00 in0.0 mm
06:55 PM 53.0°F11.7°C 31.1°F-0.5°C 43% 1.2 mph W1.9 kmh W 2.3 mph3.7 kmh 26.72 in904.8 mb - 0.00 in0.0 mm 0.00 in0.0 mm
07:00 PM 53.0°F11.7°C 30.5°F-0.8°C 42% 1.2 mph NW1.9 kmh NW 2.3 mph3.7 kmh 26.71 in904.5 mb - 0.00 in0.0 mm 0.00 in0.0 mm
07:10 PM 53.0°F11.7°C 31.1°F-0.5°C 43% 1.2 mph S1.9 kmh S 1.2 mph1.9 kmh 26.71 in904.5 mb - 0.00 in0.0 mm 0.00 in0.0 mm
07:15 PM 53.0°F11.7°C 32.2°F0.1°C 45% Calm Calm -- 26.71 in904.5 mb - 0.00 in0.0 mm 0.00 in0.0 mm
07:20 PM 52.0°F11.1°C 30.2°F-1.0°C 43% 1.2 mph NNW1.9 kmh NNW 3.5 mph5.6 kmh 26.72 in904.8 mb - 0.00 in0.0 mm 0.00 in0.0 mm
07:25 PM 52.0°F11.1°C 30.7°F-0.7°C 44% Calm Calm 3.5 mph5.6 kmh 26.71 in904.5 mb - 0.00 in0.0 mm 0.00 in0.0 mm
07:30 PM 52.0°F11.1°C 30.7°F-0.7°C 44% Calm Calm -- 26.71 in904.5 mb - 0.00 in0.0 mm 0.00 in0.0 mm
07:35 PM 52.0°F11.1°C 30.7°F-0.7°C 44% Calm Calm -- 26.71 in904.5 mb - 0.00 in0.0 mm 0.00 in0.0 mm
07:40 PM 52.0°F11.1°C 30.7°F-0.7°C 44% 1.2 mph SSW1.9 kmh SSW 1.2 mph1.9 kmh 26.71 in904.5 mb - 0.00 in0.0 mm 0.00 in0.0 mm
07:45 PM 52.0°F11.1°C 31.8°F-0.1°C 46% Calm Calm -- 26.72 in904.8 mb - 0.00 in0.0 mm 0.00 in0.0 mm
07:50 PM 51.3°F10.7°C 30.7°F-0.7°C 45% 1.2 mph E1.9 kmh E 1.2 mph1.9 kmh 26.72 in904.8 mb - 0.00 in0.0 mm 0.00 in0.0 mm
07:55 PM 51.0°F10.6°C 29.8°F-1.2°C 44% 1.2 mph E1.9 kmh E 1.2 mph1.9 kmh 26.72 in904.8 mb - 0.00 in0.0 mm 0.00 in0.0 mm
08:00 PM 51.0°F10.6°C 30.4°F-0.9°C 45% Calm Calm 1.2 mph1.9 kmh 26.72 in904.8 mb - 0.00 in0.0 mm 0.00 in0.0 mm
08:10 PM 51.0°F10.6°C 30.4°F-0.9°C 45% 1.2 mph ENE1.9 kmh ENE 1.2 mph1.9 kmh 26.72 in904.8 mb - 0.00 in0.0 mm 0.00 in0.0 mm
08:15 PM 50.0°F10.0°C 30.6°F-0.8°C 47% Calm Calm 1.2 mph1.9 kmh 26.73 in905.2 mb - 0.00 in0.0 mm 0.00 in0.0 mm
08:20 PM 50.0°F10.0°C 30.5°F-0.8°C 47% Calm Calm 3.5 mph5.6 kmh 26.73 in905.2 mb - 0.00 in0.0 mm 0.00 in0.0 mm
08:25 PM 50.0°F10.0°C 30.0°F-1.1°C 46% 2.3 mph NE3.7 kmh NE 3.5 mph5.6 kmh 26.73 in905.2 mb - 0.00 in0.0 mm 0.00 in0.0 mm
08:30 PM 50.0°F10.0°C 30.0°F-1.1°C 46% 6.9 mph S11.1 kmh S 9.2 mph14.8 kmh 26.74 in905.5 mb - 0.00 in0.0 mm 0.00 in0.0 mm
08:35 PM 50.0°F10.0°C 29.5°F-1.4°C 45% 1.2 mph W1.9 kmh W 1.2 mph1.9 kmh 26.73 in905.2 mb - 0.00 in0.0 mm 0.00 in0.0 mm
08:40 PM 50.0°F10.0°C 31.6°F-0.2°C 49% Calm Calm -- 26.74 in905.5 mb - 0.00 in0.0 mm 0.00 in0.0 mm
08:45 PM 50.0°F10.0°C 30.0°F-1.1°C 46% 2.3 mph NE3.7 kmh NE 3.5 mph5.6 kmh 26.74 in905.5 mb - 0.00 in0.0 mm 0.00 in0.0 mm
08:50 PM 50.0°F10.0°C 30.0°F-1.1°C 46% 1.2 mph NE1.9 kmh NE 3.5 mph5.6 kmh 26.74 in905.5 mb - 0.00 in0.0 mm 0.00 in0.0 mm
08:55 PM 50.0°F10.0°C 30.0°F-1.1°C 46% Calm Calm 1.2 mph1.9 kmh 26.74 in905.5 mb - 0.00 in0.0 mm 0.00 in0.0 mm
09:00 PM 50.0°F10.0°C 29.5°F-1.4°C 45% 1.2 mph W1.9 kmh W 2.3 mph3.7 kmh 26.74 in905.5 mb - 0.00 in0.0 mm 0.00 in0.0 mm
09:10 PM 50.0°F10.0°C 30.5°F-0.8°C 47% Calm Calm 1.2 mph1.9 kmh 26.74 in905.5 mb - 0.00 in0.0 mm 0.00 in0.0 mm
09:15 PM 49.0°F9.4°C 29.6°F-1.3°C 47% 1.2 mph E1.9 kmh E 2.3 mph3.7 kmh 26.73 in905.2 mb - 0.00 in0.0 mm 0.00 in0.0 mm
09:20 PM 49.0°F9.4°C 29.1°F-1.6°C 46% Calm Calm 2.3 mph3.7 kmh 26.74 in905.5 mb - 0.00 in0.0 mm 0.00 in0.0 mm
09:25 PM 49.0°F9.4°C 29.1°F-1.6°C 46% Calm Calm -- 26.74 in905.5 mb - 0.00 in0.0 mm 0.00 in0.0 mm
09:30 PM 49.0°F9.4°C 30.1°F-1.1°C 48% Calm Calm -- 26.74 in905.5 mb - 0.00 in0.0 mm 0.00 in0.0 mm
09:35 PM 49.0°F9.4°C 30.7°F-0.7°C 49% Calm Calm -- 26.74 in905.5 mb - 0.00 in0.0 mm 0.00 in0.0 mm
09:40 PM 49.0°F9.4°C 29.1°F-1.6°C 46% 2.3 mph NE3.7 kmh NE 2.3 mph3.7 kmh 26.75 in905.9 mb - 0.00 in0.0 mm 0.00 in0.0 mm
09:45 PM 49.0°F9.4°C 29.6°F-1.3°C 47% 1.2 mph E1.9 kmh E 2.3 mph3.7 kmh 26.74 in905.5 mb - 0.00 in0.0 mm 0.00 in0.0 mm
09:50 PM 49.0°F9.4°C 30.1°F-1.1°C 48% 2.3 mph NE3.7 kmh NE 6.9 mph11.1 kmh 26.74 in905.5 mb - 0.00 in0.0 mm 0.00 in0.0 mm
09:55 PM 49.0°F9.4°C 30.1°F-1.1°C 48% 1.2 mph NE1.9 kmh NE 6.9 mph11.1 kmh 26.74 in905.5 mb - 0.00 in0.0 mm 0.00 in0.0 mm
10:00 PM 49.0°F9.4°C 30.1°F-1.1°C 48% Calm Calm -- 26.74 in905.5 mb - 0.00 in0.0 mm 0.00 in0.0 mm
10:10 PM 49.0°F9.4°C 30.1°F-1.1°C 48% Calm Calm 1.2 mph1.9 kmh 26.74 in905.5 mb - 0.00 in0.0 mm 0.00 in0.0 mm
10:15 PM 48.0°F8.9°C 28.7°F-1.8°C 47% Calm Calm 1.2 mph1.9 kmh 26.74 in905.5 mb - 0.00 in0.0 mm 0.00 in0.0 mm
10:20 PM 48.0°F8.9°C 28.7°F-1.8°C 47% 1.2 mph SE1.9 kmh SE 3.5 mph5.6 kmh 26.74 in905.5 mb - 0.00 in0.0 mm 0.00 in0.0 mm
10:25 PM 48.0°F8.9°C 29.7°F-1.3°C 49% 2.3 mph S3.7 kmh S 3.5 mph5.6 kmh 26.74 in905.5 mb - 0.00 in0.0 mm 0.00 in0.0 mm
10:30 PM 48.0°F8.9°C 29.7°F-1.3°C 49% 2.3 mph S3.7 kmh S 3.5 mph5.6 kmh 26.74 in905.5 mb - 0.00 in0.0 mm 0.00 in0.0 mm
10:35 PM 48.0°F8.9°C 29.2°F-1.6°C 48% Calm Calm -- 26.74 in905.5 mb - 0.00 in0.0 mm 0.00 in0.0 mm
10:40 PM 48.0°F8.9°C 29.7°F-1.3°C 49% Calm Calm 1.2 mph1.9 kmh 26.74 in905.5 mb - 0.00 in0.0 mm 0.00 in0.0 mm
10:45 PM 48.0°F8.9°C 29.2°F-1.6°C 48% 1.2 mph S1.9 kmh S 2.3 mph3.7 kmh 26.73 in905.2 mb - 0.00 in0.0 mm 0.00 in0.0 mm
10:50 PM 48.0°F8.9°C 30.2°F-1.0°C 50% 1.2 mph ENE1.9 kmh ENE 1.2 mph1.9 kmh 26.73 in905.2 mb - 0.00 in0.0 mm 0.00 in0.0 mm
10:55 PM 47.0°F8.3°C 30.7°F-0.7°C 53% Calm Calm -- 26.74 in905.5 mb - 0.00 in0.0 mm 0.00 in0.0 mm
11:00 PM 47.0°F8.3°C 30.3°F-0.9°C 52% Calm Calm -- 26.74 in905.5 mb - 0.00 in0.0 mm 0.00 in0.0 mm
11:10 PM 47.0°F8.3°C 30.3°F-0.9°C 52% Calm Calm -- 26.74 in905.5 mb - 0.00 in0.0 mm 0.00 in0.0 mm
11:15 PM 47.0°F8.3°C 30.3°F-0.9°C 52% Calm Calm -- 26.74 in905.5 mb - 0.00 in0.0 mm 0.00 in0.0 mm
11:20 PM 47.0°F8.3°C 30.7°F-0.7°C 53% Calm Calm -- 26.74 in905.5 mb - 0.00 in0.0 mm 0.00 in0.0 mm
11:25 PM 47.0°F8.3°C 29.8°F-1.2°C 51% Calm Calm -- 26.74 in905.5 mb - 0.00 in0.0 mm 0.00 in0.0 mm
11:30 PM 47.0°F8.3°C 29.8°F-1.2°C 51% Calm Calm -- 26.73 in905.2 mb - 0.00 in0.0 mm 0.00 in0.0 mm
11:35 PM 47.0°F8.3°C 29.8°F-1.2°C 51% Calm Calm -- 26.73 in905.2 mb - 0.00 in0.0 mm 0.00 in0.0 mm
11:40 PM 45.0°F7.2°C 30.7°F-0.7°C 57% Calm Calm -- 26.73 in905.2 mb - 0.00 in0.0 mm 0.00 in0.0 mm
11:45 PM 44.0°F6.7°C 30.2°F-1.0°C 58% 1.2 mph NE1.9 kmh NE 1.2 mph1.9 kmh 26.73 in905.2 mb - 0.00 in0.0 mm 0.00 in0.0 mm
11:50 PM 44.0°F6.7°C 31.0°F-0.6°C 60% Calm Calm -- 26.73 in905.2 mb - 0.00 in0.0 mm 0.00 in0.0 mm
11:55 PM 44.0°F6.7°C 31.4°F-0.3°C 61% Calm Calm 1.2 mph1.9 kmh 26.74 in905.5 mb - 0.00 in0.0 mm 0.00 in0.0 mm